Terminal Aerodrome Forecast
Issued by NWS

Home | Current Version | Previous Version | Text Only | Print | Product List | Glossary On
Versions: 1 2 3 4 5 6 7 8 9 10 11 12 13 14 15 16 17 18 19 20 21 22 23 24 25 26 27 28 29 30
000
FTUS45 KREV 201123
TAFTRK
TAF
KTRK 201123Z 2012/2112 20018G28KT 3SM RA BR SCT008 OVC015
      WS015/24050KT
     FM201800 20022G32KT 2SM RA BR BKN008 OVC012 WS010/25070KT
     FM210500 20025G42KT 4SM RA BKN010 OVC015 WS020/25070KT=

USA.gov is the U.S. government's official web portal to all federal, state and local government web resources and services.